createdAt,value
2022-09-02T04:02:31.727Z,14.40
2022-09-02T04:05:01.243Z,14.60
2022-09-02T04:07:29.501Z,14.30
2022-09-02T04:09:57.604Z,14.40
2022-09-02T04:12:25.918Z,14.10
2022-09-02T04:15:00.590Z,14.20
2022-09-02T04:17:28.636Z,14.30
2022-09-02T04:19:58.067Z,14.50
2022-09-02T04:22:26.146Z,14.40
2022-09-02T04:24:54.235Z,14.50
2022-09-02T04:27:22.471Z,14.40
2022-09-02T04:29:50.524Z,14.40
2022-09-02T04:32:19.937Z,14.30
2022-09-02T04:34:49.989Z,14.50
2022-09-02T04:37:19.672Z,14.40
2022-09-02T04:39:47.781Z,14.40
2022-09-02T04:42:15.864Z,14.50
2022-09-02T04:44:43.924Z,14.30
2022-09-02T04:47:12.095Z,14.50
2022-09-02T04:49:42.006Z,14.40
2022-09-02T04:52:10.501Z,14.40
2022-09-02T04:54:40.080Z,14.50
2022-09-02T04:57:08.251Z,14.60
2022-09-02T04:59:36.960Z,14.50
2022-09-02T05:02:05.938Z,14.70
2022-09-02T05:04:34.567Z,14.70
2022-09-02T05:07:02.846Z,14.80
2022-09-02T05:09:32.071Z,15.10
2022-09-02T05:12:04.146Z,15.20
2022-09-02T05:14:32.968Z,15.20
2022-09-02T05:17:06.645Z,15.20
2022-09-02T05:19:36.606Z,15.40
2022-09-02T05:22:05.090Z,15.80
2022-09-02T05:24:33.407Z,15.90
2022-09-02T05:27:02.888Z,16.00
2022-09-02T05:29:31.021Z,16.20
2022-09-02T05:31:59.069Z,16.30
2022-09-02T05:34:28.171Z,16.60
2022-09-02T05:36:56.836Z,16.30
2022-09-02T05:39:24.872Z,16.80
2022-09-02T05:41:52.867Z,16.80
2022-09-02T05:44:22.308Z,16.80
2022-09-02T05:46:50.695Z,17.10
2022-09-02T05:49:21.044Z,17.20
2022-09-02T05:51:53.011Z,17.40
2022-09-02T05:54:24.356Z,17.40
2022-09-02T05:56:56.318Z,17.60
2022-09-02T05:59:29.204Z,17.40
2022-09-02T06:01:59.315Z,17.70
2022-09-02T06:04:27.451Z,18.00
2022-09-02T06:06:55.585Z,18.00
2022-09-02T06:09:25.339Z,18.00
2022-09-02T06:11:53.868Z,18.10
2022-09-02T06:14:25.969Z,18.40
2022-09-02T06:16:56.128Z,18.40
2022-09-02T06:19:26.330Z,18.40
2022-09-02T06:21:56.396Z,18.40
2022-09-02T06:24:25.055Z,18.50
2022-09-02T06:26:55.668Z,18.60
2022-09-02T06:29:27.616Z,18.80
2022-09-02T06:31:56.329Z,19.00
2022-09-02T06:34:27.251Z,19.00
2022-09-02T06:36:55.510Z,19.20
2022-09-02T06:39:25.917Z,19.40
2022-09-02T06:41:54.241Z,19.60
2022-09-02T06:44:22.974Z,19.50
2022-09-02T06:46:57.502Z,19.60
2022-09-02T06:49:27.879Z,19.90
2022-09-02T06:51:57.307Z,20.00
2022-09-02T06:54:26.461Z,19.60
2022-09-02T06:56:54.764Z,19.90
2022-09-02T06:59:23.489Z,20.10
2022-09-02T07:01:53.250Z,20.00
2022-09-02T07:04:40.388Z,20.00
2022-09-02T07:07:12.059Z,20.20
2022-09-02T07:09:41.036Z,20.30
2022-09-02T07:12:09.584Z,20.50
2022-09-02T07:14:40.680Z,20.70
2022-09-02T07:17:11.871Z,21.00
2022-09-02T07:19:40.292Z,21.30
2022-09-02T07:22:08.673Z,21.40
2022-09-02T07:24:37.602Z,21.60
2022-09-02T07:27:06.156Z,22.00
2022-09-02T07:29:35.643Z,22.00
2022-09-02T07:32:05.768Z,21.70
2022-09-02T07:34:35.214Z,22.00
2022-09-02T07:37:07.353Z,21.50
2022-09-02T07:39:38.215Z,21.70
2022-09-02T07:42:07.505Z,21.60
2022-09-02T07:44:36.696Z,21.60
2022-09-02T07:47:05.958Z,21.70
2022-09-02T07:52:23.901Z,21.60
2022-09-02T07:54:51.999Z,21.30
2022-09-02T07:57:20.158Z,21.20
2022-09-02T07:59:48.536Z,20.90
2022-09-02T08:02:19.212Z,21.20
2022-09-02T08:04:48.793Z,21.10
2022-09-02T08:07:19.005Z,21.30
2022-09-02T08:09:47.176Z,20.70
2022-09-02T08:12:17.768Z,21.30
2022-09-02T08:14:48.313Z,21.40
2022-09-02T08:17:17.522Z,21.30
2022-09-02T08:19:45.598Z,21.30
2022-09-02T08:22:15.344Z,21.50
2022-09-02T08:24:43.443Z,21.70
2022-09-02T08:27:11.610Z,21.70
2022-09-02T08:29:39.824Z,21.90
2022-09-02T08:32:08.072Z,22.00
2022-09-02T08:34:36.367Z,21.90
2022-09-02T08:37:04.467Z,21.80
2022-09-02T08:39:34.040Z,21.90
2022-09-02T08:42:13.938Z,22.20
2022-09-02T08:44:42.671Z,21.80
2022-09-02T08:47:17.661Z,22.00
2022-09-02T08:49:50.717Z,22.10
2022-09-02T08:52:30.089Z,22.10
2022-09-02T08:55:00.062Z,22.00
2022-09-02T08:57:28.793Z,22.20
2022-09-02T09:00:02.502Z,22.50
2022-09-02T09:02:47.268Z,22.20
2022-09-02T09:05:27.652Z,22.70
2022-09-02T09:08:12.459Z,22.80
2022-09-02T09:10:57.961Z,23.00
2022-09-02T09:14:01.419Z,22.80
2022-09-02T09:16:42.123Z,22.70
2022-09-02T09:19:15.695Z,22.80
2022-09-02T09:21:45.727Z,22.80
2022-09-02T09:24:27.588Z,23.30
2022-09-02T09:26:57.607Z,23.10
2022-09-02T09:29:25.751Z,23.00
2022-09-02T09:32:00.033Z,22.80
2022-09-02T09:35:07.575Z,23.60
2022-09-02T09:37:38.608Z,23.70
2022-09-02T09:40:33.721Z,24.20
2022-09-02T09:43:15.929Z,24.30
2022-09-02T09:45:47.051Z,24.50
2022-09-02T09:48:28.356Z,24.90
2022-09-02T09:51:19.235Z,25.40
2022-09-02T09:53:47.656Z,25.40
2022-09-02T09:56:32.315Z,25.70
2022-09-02T09:59:29.924Z,25.60
2022-09-02T10:01:58.110Z,25.70
2022-09-02T10:04:42.957Z,25.90
2022-09-02T10:07:13.262Z,25.70
2022-09-02T10:09:41.741Z,25.40
2022-09-02T10:12:13.159Z,25.60
2022-09-02T10:14:47.170Z,26.10
2022-09-02T10:17:32.913Z,25.90
2022-09-02T10:20:13.081Z,26.40
2022-09-02T10:23:10.920Z,26.60
2022-09-02T10:25:54.791Z,27.10
2022-09-02T10:29:04.132Z,27.80
2022-09-02T10:31:46.368Z,28.80
2022-09-02T10:34:29.736Z,29.30
2022-09-02T10:37:17.444Z,29.30
2022-09-02T10:40:09.730Z,30.30
2022-09-02T10:42:51.935Z,31.20
2022-09-02T10:45:31.648Z,31.90
2022-09-02T10:48:16.928Z,32.60
2022-09-02T10:50:53.486Z,32.10
2022-09-02T10:53:47.223Z,31.60
2022-09-02T10:56:22.728Z,30.80
2022-09-02T11:01:40.602Z,29.80
2022-09-02T11:04:25.101Z,29.20
2022-09-02T11:07:04.552Z,29.10
2022-09-02T11:09:38.744Z,28.40
2022-09-02T11:12:16.834Z,28.60
2022-09-02T11:15:03.744Z,28.50
2022-09-02T11:17:39.688Z,28.20
2022-09-02T11:20:19.740Z,28.60
2022-09-02T11:22:59.257Z,28.70
2022-09-02T11:25:35.053Z,28.80
2022-09-02T11:28:28.185Z,29.10
2022-09-02T11:31:06.672Z,29.50
2022-09-02T11:33:52.547Z,30.90
2022-09-02T11:36:22.473Z,31.10
2022-09-02T11:38:59.818Z,30.80
2022-09-02T11:41:44.419Z,30.30
2022-09-02T11:44:56.183Z,29.50
2022-09-02T11:47:58.907Z,30.40
2022-09-02T11:50:56.631Z,33.00
2022-09-02T11:53:32.827Z,33.70
2022-09-02T11:56:07.079Z,32.80
2022-09-02T11:58:39.467Z,32.40
2022-09-02T12:01:31.706Z,32.90
2022-09-02T12:04:56.133Z,34.20
2022-09-02T12:07:31.983Z,33.40
2022-09-02T12:10:06.122Z,33.20
2022-09-02T12:13:08.531Z,32.60
2022-09-02T12:15:38.353Z,32.10
2022-09-02T12:18:31.900Z,31.40
2022-09-02T12:21:16.377Z,30.70
2022-09-02T12:24:22.173Z,31.00
2022-09-02T12:27:25.916Z,33.20
2022-09-02T12:29:56.029Z,37.10
2022-09-02T12:33:09.430Z,39.20
2022-09-02T12:35:53.881Z,40.00
2022-09-02T12:38:34.788Z,41.20
2022-09-02T12:41:29.741Z,43.50
2022-09-02T12:44:24.452Z,44.80
2022-09-02T12:47:04.197Z,44.60
2022-09-02T12:49:48.307Z,42.10
2022-09-02T12:52:43.497Z,37.20
2022-09-02T12:55:20.130Z,37.30
2022-09-02T12:57:52.414Z,34.20
2022-09-02T13:00:38.595Z,33.70
2022-09-02T13:03:31.711Z,32.70
2022-09-02T13:06:10.690Z,32.70
2022-09-02T13:09:12.914Z,32.40
2022-09-02T13:12:58.179Z,30.80
2022-09-02T13:15:47.225Z,32.80
2022-09-02T13:19:07.777Z,35.80
2022-09-02T13:22:17.013Z,42.20
2022-09-02T13:25:43.855Z,46.10
2022-09-02T13:28:58.889Z,47.30
2022-09-02T13:31:29.497Z,46.50
2022-09-02T13:34:05.525Z,45.20
2022-09-02T13:36:38.524Z,40.80
2022-09-02T13:39:16.401Z,38.40
2022-09-02T13:41:45.086Z,37.10
2022-09-02T13:44:22.208Z,34.70
2022-09-02T13:46:55.638Z,34.00
2022-09-02T13:49:28.271Z,34.80
2022-09-02T13:51:58.829Z,38.40
2022-09-02T13:54:37.205Z,42.00
2022-09-02T13:57:10.761Z,43.70
2022-09-02T13:59:47.562Z,46.90
2022-09-02T14:02:28.672Z,49.50
2022-09-02T14:05:03.342Z,49.20
2022-09-02T14:07:38.790Z,46.50
2022-09-02T14:10:11.713Z,49.40
2022-09-02T14:12:41.506Z,51.00
2022-09-02T14:15:24.322Z,51.80
2022-09-02T14:18:18.059Z,51.00
2022-09-02T14:21:02.316Z,51.70
2022-09-02T14:23:34.931Z,52.50
2022-09-02T14:26:06.968Z,50.20
2022-09-02T14:28:36.947Z,37.80
2022-09-02T14:31:08.058Z,38.10
2022-09-02T14:33:44.131Z,42.50
2022-09-02T14:36:34.477Z,45.80
2022-09-02T14:39:15.454Z,48.30
2022-09-02T14:41:49.664Z,48.20
2022-09-02T14:44:25.899Z,48.60
2022-09-02T14:46:58.167Z,48.10
2022-09-02T14:49:32.504Z,49.70
2022-09-02T14:52:04.396Z,47.50
2022-09-02T14:54:39.717Z,49.30
2022-09-02T14:57:22.800Z,51.10
2022-09-02T14:59:52.102Z,51.70
2022-09-02T15:02:29.574Z,52.80
2022-09-02T15:05:01.164Z,51.80
2022-09-02T15:07:29.453Z,49.80
2022-09-02T15:09:57.686Z,47.80
2022-09-02T15:12:29.644Z,45.50
2022-09-02T15:14:58.984Z,42.80
2022-09-02T15:17:30.544Z,40.00
2022-09-02T15:20:00.019Z,38.30
2022-09-02T15:22:28.388Z,39.30
2022-09-02T15:24:57.816Z,41.70
2022-09-02T15:27:25.963Z,43.50
2022-09-02T15:29:54.080Z,43.90
2022-09-02T15:32:22.193Z,45.40
2022-09-02T15:34:50.263Z,44.70
2022-09-02T15:37:19.844Z,44.50
2022-09-02T15:39:48.066Z,42.90
2022-09-02T15:42:18.082Z,40.90
2022-09-02T15:44:46.206Z,38.80
2022-09-02T15:47:14.400Z,37.50
2022-09-02T15:49:42.541Z,36.20
2022-09-02T15:52:11.192Z,34.20
2022-09-02T15:54:40.676Z,33.20
2022-09-02T15:57:08.714Z,32.00
2022-09-02T15:59:36.891Z,31.50
2022-09-02T16:02:05.045Z,30.20
2022-09-02T16:04:33.137Z,29.80
2022-09-02T16:07:01.935Z,29.10
2022-09-02T16:09:30.559Z,28.70
2022-09-02T16:12:00.030Z,28.90
2022-09-02T16:14:28.815Z,31.50
2022-09-02T16:16:57.343Z,34.80
2022-09-02T16:19:29.973Z,37.00
2022-09-02T16:21:59.086Z,38.90
2022-09-02T16:24:27.606Z,39.50
2022-09-02T16:26:55.843Z,40.30
2022-09-02T16:29:26.877Z,40.90
2022-09-02T16:32:14.270Z,42.00
2022-09-02T16:34:46.690Z,41.90
2022-09-02T16:37:14.796Z,41.40
2022-09-02T16:39:43.380Z,42.00
2022-09-02T16:42:11.605Z,40.40
2022-09-02T16:44:41.707Z,40.40
2022-09-02T16:47:12.823Z,40.80
2022-09-02T16:49:42.156Z,40.90
2022-09-02T16:52:10.173Z,40.40
2022-09-02T16:54:40.733Z,40.00
2022-09-02T16:57:09.502Z,40.00
2022-09-02T16:59:37.644Z,38.90
2022-09-02T17:02:07.184Z,36.40
2022-09-02T17:04:35.248Z,34.90
2022-09-02T17:07:04.148Z,33.50
2022-09-02T17:09:32.333Z,31.90
2022-09-02T17:12:00.381Z,30.90
2022-09-02T17:14:28.480Z,30.00
2022-09-02T17:16:56.625Z,29.20
2022-09-02T17:19:29.986Z,28.50
2022-09-02T17:22:00.493Z,27.30
2022-09-02T17:24:30.696Z,26.50
2022-09-02T17:27:00.419Z,26.30
2022-09-02T17:29:48.941Z,25.60
2022-09-02T17:32:18.131Z,25.20
2022-09-02T17:34:49.511Z,24.40
2022-09-02T17:37:17.742Z,23.70
2022-09-02T17:39:46.633Z,23.60
2022-09-02T17:42:13.908Z,23.30
2022-09-02T17:44:42.843Z,22.80
2022-09-02T17:47:14.203Z,22.80
2022-09-02T17:49:44.414Z,22.30
2022-09-02T17:52:18.524Z,22.20
2022-09-02T17:54:50.222Z,22.00
2022-09-02T17:57:30.956Z,21.90
2022-09-02T18:00:08.781Z,21.60
2022-09-02T18:03:14.017Z,21.30
2022-09-02T18:06:06.686Z,21.00
2022-09-02T18:08:49.228Z,20.60
2022-09-02T18:11:17.600Z,20.60
2022-09-02T18:14:00.363Z,20.80
2022-09-02T18:16:36.855Z,20.50
2022-09-02T18:19:25.230Z,20.40
2022-09-02T18:22:09.277Z,20.30
2022-09-02T18:24:59.829Z,19.90
2022-09-02T18:27:45.846Z,20.00
2022-09-02T18:30:21.330Z,20.10
2022-09-02T18:33:25.765Z,19.70
2022-09-02T18:36:03.774Z,19.60
2022-09-02T18:38:42.000Z,19.80
2022-09-02T18:41:34.327Z,19.40
2022-09-02T18:44:18.695Z,19.20
2022-09-02T18:46:53.231Z,19.30
2022-09-02T18:49:24.901Z,19.20
2022-09-02T18:52:00.091Z,19.10
2022-09-02T18:54:38.339Z,19.10
2022-09-02T18:57:10.124Z,19.00
2022-09-02T18:59:48.327Z,19.20
2022-09-02T19:02:25.812Z,19.00
2022-09-02T19:04:54.339Z,19.10
2022-09-02T19:07:40.151Z,19.00
2022-09-02T19:10:09.760Z,18.80
2022-09-02T19:12:40.302Z,18.80
2022-09-02T19:15:13.339Z,18.80
2022-09-02T19:17:41.982Z,18.90
2022-09-02T19:20:11.000Z,18.80
2022-09-02T19:22:44.594Z,18.70
2022-09-02T19:25:18.512Z,18.40
2022-09-02T19:27:50.866Z,18.30
2022-09-02T19:30:22.832Z,18.60
2022-09-02T19:32:55.440Z,18.80
2022-09-02T19:35:27.728Z,18.80
2022-09-02T19:37:56.272Z,18.30
2022-09-02T19:40:28.122Z,18.30
2022-09-02T19:42:57.585Z,18.50
2022-09-02T19:45:29.212Z,18.40
2022-09-02T19:48:08.387Z,18.10
2022-09-02T19:50:40.774Z,18.40
2022-09-02T19:53:10.662Z,18.30
2022-09-02T19:55:39.079Z,18.20
2022-09-02T19:58:08.790Z,17.90
2022-09-02T20:00:37.043Z,18.10
2022-09-02T20:03:05.199Z,18.00
2022-09-02T20:05:33.525Z,18.00
2022-09-02T20:08:01.667Z,18.00
2022-09-02T20:10:30.233Z,17.90
2022-09-02T20:13:00.031Z,17.90
2022-09-02T20:15:29.651Z,17.80
2022-09-02T20:18:10.890Z,17.80
2022-09-02T20:20:42.220Z,17.90
2022-09-02T20:23:12.839Z,17.70
2022-09-02T20:26:03.558Z,17.40
2022-09-02T20:28:43.766Z,17.50
2022-09-02T20:31:36.321Z,17.10
2022-09-02T20:34:21.896Z,17.40
2022-09-02T20:36:59.912Z,17.30
2022-09-02T20:39:52.929Z,17.00
2022-09-02T20:42:45.864Z,17.10
2022-09-02T20:45:24.956Z,17.20
2022-09-02T20:48:10.325Z,17.20
2022-09-02T20:50:50.252Z,17.10
2022-09-02T20:53:54.823Z,17.10
2022-09-02T20:56:37.800Z,17.30
2022-09-02T20:59:21.083Z,17.30
